Time;durP1;ratioP1;P1;durP2;ratioP2;P2;SDS_P1;SDS_P2;PMS_P1;PMS_P2;Temp;Humidity;BMP_temperature;BMP_pressure;BME280_temperature;BME280_humidity;BME280_pressure;Samples;Min_cycle;Max_cycle;Signal;HPM_P1;HPM_P2
2021/11/06 00:00:30;;;;;;;;;;;;;;;5.59;99.51;97215.28;5077924;28;19924;-77
2021/11/06 00:02:55;;;;;;;;;;;;;;;5.59;99.48;97217.88;5062067;28;19924;-75
2021/11/06 00:05:21;;;;;;;;;;;;;;;5.46;99.93;97221.94;5099847;28;19912;-75
2021/11/06 00:07:48;;;;;;;;;;;;;;;5.35;100.00;97222.38;5099295;28;19985;-75
2021/11/06 00:10:13;;;;;;;;;;;;;;;5.42;100.00;97227.69;5098602;28;19951;-76
2021/11/06 00:12:39;;;;;;;;;;;;;;;5.34;100.00;97220.75;5088712;28;19928;-77
2021/11/06 00:15:07;;;;;;;;;;;;;;;5.32;100.00;97217.50;5076791;28;19925;-76
2021/11/06 00:17:33;;;;;;;;;;;;;;;5.26;100.00;97216.41;5077970;28;19931;-77
2021/11/06 00:19:58;;;;;;;;;;;;;;;5.29;100.00;97215.25;5078010;28;19928;-77
2021/11/06 00:22:23;;;;;;;;;;;;;;;5.33;100.00;97218.31;5077307;28;19935;-77
2021/11/06 00:24:50;;;;;;;;;;;;;;;5.24;100.00;97209.75;5077566;28;19924;-77
2021/11/06 00:27:19;;;;;;;;;;;;;;;5.25;100.00;97220.00;5077478;28;19931;-77
2021/11/06 00:29:44;;;;;;;;;;;;;;;5.24;100.00;97226.22;5076004;28;20350;-77
2021/11/06 00:32:12;;;;;;;;;;;;;;;5.35;100.00;97226.78;5076955;28;19924;-77
2021/11/06 00:34:37;;;;;;;;;;;;;;;5.32;100.00;97220.09;5059153;28;19924;-76
2021/11/06 00:37:10;;;;;;;;;;;;;;;5.29;100.00;97212.66;5057677;28;19947;-75
2021/11/06 00:39:35;;;;;;;;;;;;;;;5.31;100.00;97223.72;5057937;28;19925;-76
2021/11/06 00:42:03;;;;;;;;;;;;;;;5.29;100.00;97222.28;5075542;28;20285;-76
2021/11/06 00:44:28;;;;;;;;;;;;;;;5.33;100.00;97223.53;5075887;28;19963;-77
2021/11/06 00:46:53;;;;;;;;;;;;;;;5.32;99.38;97227.13;5075886;28;19924;-76
2021/11/06 00:49:19;;;;;;;;;;;;;;;5.33;98.88;97220.91;5079772;28;19955;-77
2021/11/06 00:51:44;;;;;;;;;;;;;;;5.36;98.98;97226.59;5079476;28;19924;-77
2021/11/06 00:54:10;;;;;;;;;;;;;;;5.26;98.73;97219.00;5079167;28;19924;-75
2021/11/06 00:56:38;;;;;;;;;;;;;;;5.25;98.21;97220.00;5076390;28;19951;-78
2021/11/06 00:59:04;;;;;;;;;;;;;;;5.16;99.03;97223.66;5058234;28;19924;-77
2021/11/06 01:01:30;;;;;;;;;;;;;;;5.15;98.45;97224.66;5076049;28;19971;-77
2021/11/06 01:03:56;;;;;;;;;;;;;;;5.19;98.96;97225.94;5057792;28;19943;-77
2021/11/06 01:06:22;;;;;;;;;;;;;;;5.12;99.12;97227.63;5077670;28;20372;-77
2021/11/06 01:08:48;;;;;;;;;;;;;;;5.09;98.71;97224.56;5078047;28;19935;-76
2021/11/06 01:11:15;;;;;;;;;;;;;;;5.06;99.15;97233.56;5075155;28;19928;-76
2021/11/06 01:13:44;;;;;;;;;;;;;;;5.06;99.30;97232.72;5076388;28;19924;-77
2021/11/06 01:16:13;;;;;;;;;;;;;;;5.06;99.65;97235.34;5059843;28;20204;-75
2021/11/06 01:18:38;;;;;;;;;;;;;;;5.04;99.22;97229.50;5080690;28;20317;-77
2021/11/06 01:21:03;;;;;;;;;;;;;;;5.06;99.42;97230.94;5058174;28;19943;-76
2021/11/06 01:23:29;;;;;;;;;;;;;;;5.04;99.27;97219.88;5075042;28;19924;-77
2021/11/06 01:25:57;;;;;;;;;;;;;;;5.13;100.00;97233.66;5080752;28;19929;-76
2021/11/06 01:28:22;;;;;;;;;;;;;;;5.11;99.56;97238.22;5058345;28;19940;-76
2021/11/06 01:30:50;;;;;;;;;;;;;;;5.07;99.21;97231.75;5076991;28;19983;-77
2021/11/06 01:33:17;;;;;;;;;;;;;;;5.08;99.67;97230.78;5076142;28;19931;-77
2021/11/06 01:35:45;;;;;;;;;;;;;;;5.02;100.00;97221.03;5076873;28;19978;-76
2021/11/06 01:38:11;;;;;;;;;;;;;;;4.99;100.00;97222.19;5075783;28;20311;-75
2021/11/06 01:40:36;;;;;;;;;;;;;;;5.11;99.88;97201.72;5075162;28;20356;-76
2021/11/06 01:43:02;;;;;;;;;;;;;;;4.94;100.00;97216.69;5057210;28;20348;-77
2021/11/06 01:45:27;;;;;;;;;;;;;;;4.84;100.00;97214.31;5091723;28;19912;-74
2021/11/06 01:47:53;;;;;;;;;;;;;;;4.77;100.00;97213.41;5077936;28;19960;-74
2021/11/06 01:50:21;;;;;;;;;;;;;;;4.77;100.00;97213.41;5078491;28;19963;-76
2021/11/06 01:52:47;;;;;;;;;;;;;;;4.76;100.00;97211.78;5076098;28;19924;-77
2021/11/06 01:55:12;;;;;;;;;;;;;;;4.74;100.00;97216.38;5077538;28;19947;-75
2021/11/06 01:57:38;;;;;;;;;;;;;;;4.74;100.00;97213.75;5074988;28;20013;-77
2021/11/06 02:00:05;;;;;;;;;;;;;;;4.69;100.00;97216.88;5076309;28;20388;-75
2021/11/06 02:02:31;;;;;;;;;;;;;;;4.57;100.00;97220.84;5075539;28;19928;-76
2021/11/06 02:04:56;;;;;;;;;;;;;;;4.50;100.00;97211.31;5074975;28;19989;-78
2021/11/06 02:07:25;;;;;;;;;;;;;;;4.47;100.00;97213.28;5056808;28;19924;-76
2021/11/06 02:09:50;;;;;;;;;;;;;;;4.39;100.00;97218.53;5076210;28;19925;-77
2021/11/06 02:12:16;;;;;;;;;;;;;;;4.39;100.00;97217.72;5076164;28;20483;-76
2021/11/06 02:14:41;;;;;;;;;;;;;;;4.30;100.00;97213.53;5057125;28;19925;-77
2021/11/06 02:17:07;;;;;;;;;;;;;;;4.32;100.00;97215.00;5077470;28;19924;-77
2021/11/06 02:19:32;;;;;;;;;;;;;;;4.23;100.00;97210.81;5080286;28;19924;-78
2021/11/06 02:22:00;;;;;;;;;;;;;;;4.18;100.00;97218.31;5063704;28;19996;-75
2021/11/06 02:24:25;;;;;;;;;;;;;;;4.12;100.00;97219.81;5063227;28;19924;-78
2021/11/06 02:26:50;;;;;;;;;;;;;;;4.15;100.00;97218.69;5081134;28;19994;-76
2021/11/06 02:29:16;;;;;;;;;;;;;;;4.10;100.00;97215.78;5082132;28;19924;-76
2021/11/06 02:31:44;;;;;;;;;;;;;;;4.08;100.00;97220.31;5082737;28;19924;-77
2021/11/06 02:34:10;;;;;;;;;;;;;;;4.07;100.00;97219.50;5060651;28;19925;-77
2021/11/06 02:36:35;;;;;;;;;;;;;;;3.93;100.00;97220.25;5073467;28;20403;-77
2021/11/06 02:39:06;;;;;;;;;;;;;;;3.82;100.00;97213.63;5073604;28;19924;-77
2021/11/06 02:41:32;;;;;;;;;;;;;;;3.77;100.00;97215.91;5078847;28;19954;-76
2021/11/06 02:43:59;;;;;;;;;;;;;;;3.72;100.00;97218.19;5079163;28;19912;-75
2021/11/06 02:46:27;;;;;;;;;;;;;;;3.75;100.00;97222.25;5063720;28;19924;-76
2021/11/06 02:48:53;;;;;;;;;;;;;;;3.71;100.00;97216.56;5082174;28;19973;-78
2021/11/06 02:51:18;;;;;;;;;;;;;;;3.70;100.00;97214.94;5081636;28;19938;-74
2021/11/06 02:53:44;;;;;;;;;;;;;;;3.77;100.00;97215.91;5078787;28;19954;-77
2021/11/06 02:56:11;;;;;;;;;;;;;;;3.74;100.00;97212.81;5079476;28;19924;-76
2021/11/06 02:58:36;;;;;;;;;;;;;;;3.66;100.00;97203.25;5076286;28;20313;-78
2021/11/06 03:01:02;;;;;;;;;;;;;;;3.58;100.00;97200.66;5056653;28;19938;-75
2021/11/06 03:03:27;;;;;;;;;;;;;;;3.52;100.00;97211.75;5055865;28;19935;-77
2021/11/06 03:05:53;;;;;;;;;;;;;;;3.53;100.00;97205.56;5056004;28;19924;-77
2021/11/06 03:08:18;;;;;;;;;;;;;;;3.58;100.00;97204.06;5073619;28;19964;-77
2021/11/06 03:10:46;;;;;;;;;;;;;;;3.64;100.00;97215.59;5055443;28;20406;-75
2021/11/06 03:13:13;;;;;;;;;;;;;;;3.72;100.00;97206.97;5074534;28;19924;-77
2021/11/06 03:15:40;;;;;;;;;;;;;;;3.71;100.00;97205.34;5074820;28;20470;-76
2021/11/06 03:18:06;;;;;;;;;;;;;;;3.67;100.00;97213.50;5076722;28;20417;-77
2021/11/06 03:20:32;;;;;;;;;;;;;;;3.67;100.00;97215.28;5056431;28;19924;-77
2021/11/06 03:22:58;;;;;;;;;;;;;;;3.56;100.00;97208.66;5056140;28;20318;-76
2021/11/06 03:25:24;;;;;;;;;;;;;;;3.48;100.00;97205.25;5074939;28;20388;-77
2021/11/06 03:27:49;;;;;;;;;;;;;;;3.38;100.00;97208.84;5074914;28;19924;-77
2021/11/06 03:30:16;;;;;;;;;;;;;;;3.35;100.00;97205.78;5078280;28;19935;-76
2021/11/06 03:32:42;;;;;;;;;;;;;;;3.23;100.00;97217.47;5083160;28;19924;-75
2021/11/06 03:35:08;;;;;;;;;;;;;;;3.16;100.00;97207.72;5077891;28;19929;-76
2021/11/06 03:37:33;;;;;;;;;;;;;;;3.13;100.00;97212.47;5054603;28;19928;-76
2021/11/06 03:39:58;;;;;;;;;;;;;;;3.15;100.00;97205.31;5076881;28;19993;-75
2021/11/06 03:42:24;;;;;;;;;;;;;;;3.20;100.00;97213.44;5085808;28;20287;-76
2021/11/06 03:44:49;;;;;;;;;;;;;;;3.25;100.00;97216.34;5093700;28;19925;-75
2021/11/06 03:47:16;;;;;;;;;;;;;;;3.31;100.00;97220.88;5090139;28;19937;-77
2021/11/06 03:49:42;;;;;;;;;;;;;;;3.32;100.00;97221.69;5082617;28;19951;-77
2021/11/06 03:52:10;;;;;;;;;;;;;;;3.29;100.00;97217.66;5062650;28;19924;-77
2021/11/06 03:54:36;;;;;;;;;;;;;;;3.25;100.00;97220.75;5056534;28;20018;-76
2021/11/06 03:57:01;;;;;;;;;;;;;;;3.29;100.00;97222.84;5072156;28;20458;-76
2021/11/06 03:59:27;;;;;;;;;;;;;;;3.28;100.00;97223.00;5072848;28;19928;-76
2021/11/06 04:01:52;;;;;;;;;;;;;;;3.36;100.00;97226.41;5071764;28;19931;-77
2021/11/06 04:04:19;;;;;;;;;;;;;;;3.31;100.00;97220.06;5072222;28;19928;-77
2021/11/06 04:06:44;;;;;;;;;;;;;;;3.27;100.00;97229.19;5072565;28;20179;-77
2021/11/06 04:09:12;;;;;;;;;;;;;;;3.13;100.00;97233.25;5072850;28;19924;-78
2021/11/06 04:11:37;;;;;;;;;;;;;;;2.88;100.00;97235.84;5072692;28;19925;-77
2021/11/06 04:14:05;;;;;;;;;;;;;;;2.92;100.00;97235.53;5054660;28;20014;-76
2021/11/06 04:16:30;;;;;;;;;;;;;;;2.73;100.00;97227.06;5074230;28;19924;-78
2021/11/06 04:18:55;;;;;;;;;;;;;;;2.66;100.00;97233.09;5072027;28;19936;-77
2021/11/06 04:21:22;;;;;;;;;;;;;;;2.51;100.00;97227.69;5053986;28;19979;-76
2021/11/06 04:23:50;;;;;;;;;;;;;;;2.54;100.00;97228.19;5072152;28;20385;-77
2021/11/06 04:26:15;;;;;;;;;;;;;;;2.54;100.00;97217.00;5072012;28;19960;-77
2021/11/06 04:28:41;;;;;;;;;;;;;;;2.63;100.00;97236.81;5055140;28;19924;-77
2021/11/06 04:31:08;;;;;;;;;;;;;;;2.61;100.00;97233.56;5074250;28;19931;-76
2021/11/06 04:33:34;;;;;;;;;;;;;;;2.72;100.00;97235.84;5076734;28;19928;-77
2021/11/06 04:35:59;;;;;;;;;;;;;;;2.63;100.00;97239.41;5072391;28;19931;-76
2021/11/06 04:38:26;;;;;;;;;;;;;;;2.56;100.00;97241.03;5072741;28;20406;-77
2021/11/06 04:40:51;;;;;;;;;;;;;;;2.46;100.00;97241.16;5057842;28;20015;-77
2021/11/06 04:43:16;;;;;;;;;;;;;;;2.34;100.00;97247.63;5076319;28;20028;-77
2021/11/06 04:45:44;;;;;;;;;;;;;;;2.31;100.00;97243.59;5076867;28;20372;-77
2021/11/06 04:48:09;;;;;;;;;;;;;;;2.26;100.00;97242.41;5076034;28;20376;-76
2021/11/06 04:50:35;;;;;;;;;;;;;;;2.30;100.00;97243.72;5076154;28;20389;-77
2021/11/06 04:53:00;;;;;;;;;;;;;;;2.28;100.00;97243.06;5097121;28;20775;-73
2021/11/06 04:55:27;;;;;;;;;;;;;;;2.19;100.00;97242.22;5099602;28;19912;-74
2021/11/06 04:57:52;;;;;;;;;;;;;;;2.17;100.00;97254.56;5099184;22;19931;-80
2021/11/06 05:00:18;;;;;;;;;;;;;;;2.20;100.00;97253.41;5059757;28;19954;-80
2021/11/06 05:02:43;;;;;;;;;;;;;;;2.17;100.00;97249.38;5076981;28;20139;-80
2021/11/06 05:05:09;;;;;;;;;;;;;;;2.17;100.00;97248.56;5074926;28;20273;-79
2021/11/06 05:07:34;;;;;;;;;;;;;;;2.18;100.00;97244.97;5075361;28;19940;-79
2021/11/06 05:10:00;;;;;;;;;;;;;;;2.05;100.00;97229.88;5075914;28;20423;-81
2021/11/06 05:12:27;;;;;;;;;;;;;;;2.10;100.00;97245.78;5075757;28;19991;-80
2021/11/06 05:14:52;;;;;;;;;;;;;;;2.14;100.00;97256.66;5076118;28;20466;-80
2021/11/06 05:17:19;;;;;;;;;;;;;;;2.05;100.00;97251.44;5062744;28;19912;-80
2021/11/06 05:19:47;;;;;;;;;;;;;;;2.03;100.00;97249.94;5096971;28;19928;-79
2021/11/06 05:22:12;;;;;;;;;;;;;;;2.09;100.00;97249.31;5097741;28;19919;-79
2021/11/06 05:24:38;;;;;;;;;;;;;;;2.10;100.00;97251.78;5079862;28;19912;-79
2021/11/06 05:27:04;;;;;;;;;;;;;;;2.07;100.00;97251.28;5079844;28;19928;-79
2021/11/06 05:29:31;;;;;;;;;;;;;;;2.03;100.00;97249.94;5098176;28;19924;-79
2021/11/06 05:31:56;;;;;;;;;;;;;;;2.07;100.00;97246.09;5068918;28;19924;-80
2021/11/06 05:34:21;;;;;;;;;;;;;;;2.05;100.00;97245.44;5083179;28;19924;-80
2021/11/06 05:36:47;;;;;;;;;;;;;;;2.02;100.00;97248.34;5058742;28;19924;-80
2021/11/06 05:39:12;;;;;;;;;;;;;;;2.02;100.00;97256.94;5059152;28;19932;-80
2021/11/06 05:41:38;;;;;;;;;;;;;;;2.02;100.00;97248.34;5076740;28;19931;-79
2021/11/06 05:44:06;;;;;;;;;;;;;;;1.96;100.00;97249.78;5076992;28;19941;-80
2021/11/06 05:46:32;;;;;;;;;;;;;;;1.98;100.00;97250.41;5078733;28;19924;-80
2021/11/06 05:48:58;;;;;;;;;;;;;;;1.97;100.00;97256.59;5083144;28;19924;-80
2021/11/06 05:51:25;;;;;;;;;;;;;;;1.91;100.00;97259.81;5083202;28;19928;-80
2021/11/06 05:53:51;;;;;;;;;;;;;;;1.90;100.00;97259.97;5079606;28;19924;-80
2021/11/06 05:56:19;;;;;;;;;;;;;;;1.83;100.00;97254.59;5059187;28;19931;-80
2021/11/06 05:58:47;;;;;;;;;;;;;;;1.78;100.00;97254.25;5058652;28;20308;-80
2021/11/06 06:01:13;;;;;;;;;;;;;;;1.88;100.00;97261.88;5077813;28;20049;-79
2021/11/06 06:03:39;;;;;;;;;;;;;;;1.86;100.00;97261.22;5057540;28;20019;-80
2021/11/06 06:06:05;;;;;;;;;;;;;;;1.81;100.00;97259.91;5075673;28;19932;-79
2021/11/06 06:08:30;;;;;;;;;;;;;;;1.80;100.00;97260.88;5057864;28;19970;-79
2021/11/06 06:10:56;;;;;;;;;;;;;;;1.82;100.00;97256.34;5076189;28;19924;-79
2021/11/06 06:13:25;;;;;;;;;;;;;;;1.75;100.00;97257.13;5059061;28;19952;-79
2021/11/06 06:15:53;;;;;;;;;;;;;;;1.74;100.00;97264.09;5079430;28;19924;-80
2021/11/06 06:18:18;;;;;;;;;;;;;;;1.53;100.00;97254.09;5074380;28;19931;-79
2021/11/06 06:20:45;;;;;;;;;;;;;;;1.57;100.00;97270.97;5074494;28;19979;-79
2021/11/06 06:23:14;;;;;;;;;;;;;;;1.58;100.00;97272.59;5089210;28;19946;-79
2021/11/06 06:25:42;;;;;;;;;;;;;;;1.51;100.00;97276.78;5069186;28;20019;-79
2021/11/06 06:28:08;;;;;;;;;;;;;;;1.54;100.00;97280.84;5082034;28;20385;-79
2021/11/06 06:30:35;;;;;;;;;;;;;;;1.57;100.00;97281.34;5088926;28;19924;-79
2021/11/06 06:33:00;;;;;;;;;;;;;;;1.58;100.00;97282.16;5067036;28;19928;-80
2021/11/06 06:35:28;;;;;;;;;;;;;;;1.57;100.00;97285.72;5057510;28;20015;-80
2021/11/06 06:37:56;;;;;;;;;;;;;;;1.54;100.00;97283.44;5060553;28;19952;-79
2021/11/06 06:40:21;;;;;;;;;;;;;;;1.55;100.00;97292.81;5088724;28;19924;-79
2021/11/06 06:42:46;;;;;;;;;;;;;;;1.45;100.00;97286.94;5068773;28;19947;-79
2021/11/06 06:45:12;;;;;;;;;;;;;;;1.51;100.00;97296.72;5087699;28;20029;-79
2021/11/06 06:47:37;;;;;;;;;;;;;;;1.45;100.00;97299.88;5062984;28;19931;-79
2021/11/06 06:50:03;;;;;;;;;;;;;;;1.35;100.00;97300.00;5083463;28;19983;-80
2021/11/06 06:52:29;;;;;;;;;;;;;;;1.29;100.00;97304.00;5078665;28;19934;-80
2021/11/06 06:54:55;;;;;;;;;;;;;;;1.20;100.00;97294.53;5076843;28;20210;-80
2021/11/06 06:57:21;;;;;;;;;;;;;;;1.22;100.00;97304.75;5075154;28;19952;-81
2021/11/06 06:59:48;;;;;;;;;;;;;;;1.16;100.00;97316.53;5077563;28;20311;-80
2021/11/06 07:02:15;;;;;;;;;;;;;;;1.08;100.00;97321.66;5074844;28;20337;-80
2021/11/06 07:04:40;;;;;;;;;;;;;;;1.00;100.00;97319.78;5075014;28;19925;-80
2021/11/06 07:07:05;;;;;;;;;;;;;;;1.07;100.00;97325.19;5074847;28;19978;-80
2021/11/06 07:09:32;;;;;;;;;;;;;;;1.07;100.00;97325.19;5074512;28;20011;-80
2021/11/06 07:12:02;;;;;;;;;;;;;;;1.08;100.00;97332.03;5074427;28;19931;-79
2021/11/06 07:14:27;;;;;;;;;;;;;;;1.36;100.00;97334.50;5074985;28;19924;-79
2021/11/06 07:16:53;;;;;;;;;;;;;;;1.29;100.00;97337.72;5074966;28;19932;-79
2021/11/06 07:19:18;;;;;;;;;;;;;;;1.23;100.00;97330.50;5075010;28;20397;-80
2021/11/06 07:21:43;;;;;;;;;;;;;;;1.22;100.00;97347.03;5075228;28;19924;-80
2021/11/06 07:24:09;;;;;;;;;;;;;;;1.34;100.00;97347.59;5075132;28;20019;-80
2021/11/06 07:26:37;;;;;;;;;;;;;;;1.32;100.00;97359.91;5056675;28;19959;-80
2021/11/06 07:29:04;;;;;;;;;;;;;;;1.51;100.00;97356.34;5075308;28;19931;-80
2021/11/06 07:31:29;;;;;;;;;;;;;;;1.52;100.00;97356.19;5075217;28;19956;-81
2021/11/06 07:33:55;;;;;;;;;;;;;;;1.65;100.00;97360.16;5075378;28;20289;-80
2021/11/06 07:36:20;;;;;;;;;;;;;;;1.65;100.00;97362.75;5074484;28;19962;-80
2021/11/06 07:38:46;;;;;;;;;;;;;;;1.47;100.00;97363.59;5076348;28;19963;-80
2021/11/06 07:41:12;;;;;;;;;;;;;;;1.77;100.00;97372.72;5060679;28;19966;-80
2021/11/06 07:43:38;;;;;;;;;;;;;;;1.73;100.00;97368.84;5081114;28;19975;-80
2021/11/06 07:46:07;;;;;;;;;;;;;;;1.51;99.86;97374.50;5062331;28;20292;-79
2021/11/06 07:48:32;;;;;;;;;;;;;;;1.55;99.76;97366.25;5061192;28;20019;-79
2021/11/06 07:50:58;;;;;;;;;;;;;;;1.75;99.95;97377.25;5079837;28;19956;-80
2021/11/06 07:53:24;;;;;;;;;;;;;;;1.70;99.70;97369.13;5092835;28;19968;-79
2021/11/06 07:55:52;;;;;;;;;;;;;;;1.82;99.97;97373.09;5079155;28;20434;-80
2021/11/06 07:58:17;;;;;;;;;;;;;;;1.98;99.44;97368.97;5074614;28;20392;-81
2021/11/06 08:00:43;;;;;;;;;;;;;;;2.06;99.29;97358.66;5075410;28;19950;-80
2021/11/06 08:03:10;;;;;;;;;;;;;;;1.82;99.85;97367.09;5076438;28;19964;-80
2021/11/06 08:05:35;;;;;;;;;;;;;;;1.98;99.94;97351.63;5058537;28;20449;-80
2021/11/06 08:08:01;;;;;;;;;;;;;;;2.18;99.68;97367.78;5057446;28;19925;-80
2021/11/06 08:10:29;;;;;;;;;;;;;;;2.42;99.32;97361.06;5058036;28;19996;-81
2021/11/06 08:12:59;;;;;;;;;;;;;;;2.49;97.96;97359.50;5070850;28;19978;-79
2021/11/06 08:15:25;;;;;;;;;;;;;;;2.66;97.71;97363.78;5089384;28;20357;-80
2021/11/06 08:17:51;;;;;;;;;;;;;;;2.78;96.99;97365.09;5063118;28;20014;-80
2021/11/06 08:20:22;;;;;;;;;;;;;;;3.01;97.19;97370.50;5082009;28;20005;-80
2021/11/06 08:22:48;;;;;;;;;;;;;;;3.14;96.58;97367.47;5081328;28;19978;-79
2021/11/06 08:25:16;;;;;;;;;;;;;;;3.11;95.71;97370.38;5063456;28;19933;-80
2021/11/06 08:27:41;;;;;;;;;;;;;;;3.12;94.92;97364.19;5063084;28;19974;-80
2021/11/06 08:30:07;;;;;;;;;;;;;;;3.31;95.04;97366.50;5062507;28;19924;-79
2021/11/06 08:32:35;;;;;;;;;;;;;;;3.45;94.56;97366.84;5064991;28;19928;-80
2021/11/06 08:35:03;;;;;;;;;;;;;;;3.54;95.02;97376.28;5063580;28;19924;-80
2021/11/06 08:37:29;;;;;;;;;;;;;;;3.64;94.15;97377.72;5080356;28;19924;-79
2021/11/06 08:39:57;;;;;;;;;;;;;;;3.68;92.65;97373.03;5080227;28;19932;-79
2021/11/06 08:42:22;;;;;;;;;;;;;;;3.63;92.67;97375.31;5080757;28;19931;-80
2021/11/06 08:44:50;;;;;;;;;;;;;;;3.78;91.70;97370.25;5081772;28;19952;-79
2021/11/06 08:47:16;;;;;;;;;;;;;;;3.99;91.87;97370.56;5079805;28;19996;-78
2021/11/06 08:49:41;;;;;;;;;;;;;;;4.09;91.08;97376.41;5079299;28;20050;-79
2021/11/06 08:52:07;;;;;;;;;;;;;;;3.97;90.00;97376.88;5062344;28;20069;-80
2021/11/06 08:54:34;;;;;;;;;;;;;;;4.16;89.82;97377.34;5063111;28;19935;-79
2021/11/06 08:56:59;;;;;;;;;;;;;;;4.24;90.60;97378.28;5079924;28;19924;-79
2021/11/06 08:59:27;;;;;;;;;;;;;;;4.38;90.40;97381.03;5080118;28;19925;-80
2021/11/06 09:01:53;;;;;;;;;;;;;;;4.29;91.57;97376.00;5061958;28;20027;-80
2021/11/06 09:04:19;;;;;;;;;;;;;;;4.40;92.21;97373.03;5081513;28;19924;-80
2021/11/06 09:06:45;;;;;;;;;;;;;;;4.42;91.77;97368.50;5079722;28;19929;-79
2021/11/06 09:09:12;;;;;;;;;;;;;;;4.47;92.10;97368.81;5071067;28;19988;-80
2021/11/06 09:11:39;;;;;;;;;;;;;;;4.76;92.09;97378.59;5088072;28;20006;-80
2021/11/06 09:14:04;;;;;;;;;;;;;;;4.73;91.89;97376.31;5081042;28;19932;-79
2021/11/06 09:16:36;;;;;;;;;;;;;;;4.75;92.26;97376.97;5080432;28;20391;-80
2021/11/06 09:19:02;;;;;;;;;;;;;;;4.96;91.05;97386.81;5079784;28;19978;-80
2021/11/06 09:21:29;;;;;;;;;;;;;;;4.73;92.14;97384.16;5081479;28;20308;-79
2021/11/06 09:24:01;;;;;;;;;;;;;;;4.62;92.02;97387.13;5081602;28;20039;-79
2021/11/06 09:26:27;;;;;;;;;;;;;;;4.40;92.72;97389.47;5081428;28;19924;-79
2021/11/06 09:28:55;;;;;;;;;;;;;;;4.14;94.89;97387.13;5078656;28;19930;-80
2021/11/06 09:31:22;;;;;;;;;;;;;;;4.07;95.52;97388.75;5078297;28;20358;-79
2021/11/06 09:33:50;;;;;;;;;;;;;;;4.02;96.14;97379.81;5078059;28;19929;-80
2021/11/06 09:36:19;;;;;;;;;;;;;;;4.06;95.59;97387.13;5082691;28;19924;-80
2021/11/06 09:38:45;;;;;;;;;;;;;;;4.19;94.86;97376.19;5084461;28;20025;-80
2021/11/06 09:41:10;;;;;;;;;;;;;;;4.47;94.35;97385.25;5082059;28;19924;-79
2021/11/06 09:43:37;;;;;;;;;;;;;;;4.67;93.17;97380.41;5079289;28;20073;-80
2021/11/06 09:46:04;;;;;;;;;;;;;;;4.81;94.17;97381.50;5077662;28;19929;-79
2021/11/06 09:48:32;;;;;;;;;;;;;;;4.95;92.63;97385.19;5078438;28;19930;-79
2021/11/06 09:50:59;;;;;;;;;;;;;;;4.84;91.95;97385.56;5087067;28;19932;-80
2021/11/06 09:53:24;;;;;;;;;;;;;;;4.81;92.49;97380.69;5091353;28;19928;-80
2021/11/06 09:55:50;;;;;;;;;;;;;;;4.68;92.53;97387.28;5084304;28;19931;-80
2021/11/06 09:58:18;;;;;;;;;;;;;;;4.91;92.57;97391.75;5077581;28;20057;-79
2021/11/06 10:00:44;;;;;;;;;;;;;;;5.24;90.93;97393.16;5060327;28;19925;-80
2021/11/06 10:03:11;;;;;;;;;;;;;;;4.86;92.03;97389.63;5077041;28;20426;-80
2021/11/06 10:05:50;;;;;;;;;;;;;;;5.54;91.42;97388.06;5077807;28;19959;-81
2021/11/06 10:08:20;;;;;;;;;;;;;;;5.73;88.91;97392.00;5059134;28;20304;-81
2021/11/06 10:10:46;;;;;;;;;;;;;;;5.72;88.42;97387.78;5078407;28;19977;-80
2021/11/06 10:13:11;;;;;;;;;;;;;;;5.96;88.54;97381.53;5059670;28;19925;-80
2021/11/06 10:15:40;;;;;;;;;;;;;;;5.85;88.23;97390.59;5077207;28;19925;-80
2021/11/06 10:18:13;;;;;;;;;;;;;;;5.90;89.04;97392.66;5078156;28;19978;-81
2021/11/06 10:20:41;;;;;;;;;;;;;;;6.14;87.86;97381.22;5058865;28;19951;-80
2021/11/06 10:23:07;;;;;;;;;;;;;;;6.21;87.47;97379.50;5078816;28;20023;-80
2021/11/06 10:25:33;;;;;;;;;;;;;;;6.40;86.13;97384.19;5061039;28;19959;-78
2021/11/06 10:28:03;;;;;;;;;;;;;;;6.45;85.98;97371.41;5079498;28;19936;-80
2021/11/06 10:30:34;;;;;;;;;;;;;;;6.36;86.30;97376.91;5078558;28;19932;-79
2021/11/06 10:33:02;;;;;;;;;;;;;;;6.44;85.89;97367.16;5078977;28;19973;-80
2021/11/06 10:35:30;;;;;;;;;;;;;;;6.49;85.44;97364.00;5061280;28;19931;-80
2021/11/06 10:37:56;;;;;;;;;;;;;;;6.83;85.82;97361.66;5078301;28;19924;-79
2021/11/06 10:40:22;;;;;;;;;;;;;;;6.88;85.33;97366.28;5078356;28;19924;-80
2021/11/06 10:42:48;;;;;;;;;;;;;;;6.76;84.95;97359.94;5078784;28;20023;-81
2021/11/06 10:45:14;;;;;;;;;;;;;;;6.38;85.64;97352.22;5085399;28;19925;-80
2021/11/06 10:47:50;;;;;;;;;;;;;;;6.27;87.07;97360.50;5072976;28;19931;-80
2021/11/06 10:50:18;;;;;;;;;;;;;;;6.44;86.69;97348.88;5091723;28;19928;-80
2021/11/06 10:52:46;;;;;;;;;;;;;;;6.45;87.15;97349.69;5065367;28;20033;-81
2021/11/06 10:55:12;;;;;;;;;;;;;;;6.25;87.09;97349.44;5080825;28;19925;-80
2021/11/06 10:57:38;;;;;;;;;;;;;;;6.21;87.76;97348.97;5081167;22;19931;-77
2021/11/06 11:00:07;;;;;;;;;;;;;;;6.13;nan;97340.41;5064116;28;19924;-77
2021/11/06 11:02:33;;;;;;;;;;;;;;;6.09;88.30;97339.16;5083129;28;19924;-75
2021/11/06 11:04:58;;;;;;;;;;;;;;;6.28;87.83;97334.19;5079857;28;19931;-77
2021/11/06 11:07:24;;;;;;;;;;;;;;;6.52;86.22;97335.72;5078934;28;20312;-76
2021/11/06 11:09:51;;;;;;;;;;;;;;;6.42;86.92;97329.97;5085540;28;20381;-77
2021/11/06 11:12:19;;;;;;;;;;;;;;;6.36;87.24;97322.84;5062187;28;19924;-79
2021/11/06 11:14:49;;;;;;;;;;;;;;;6.41;87.29;97323.13;5084444;28;20019;-77
2021/11/06 11:17:14;;;;;;;;;;;;;;;6.39;87.92;97321.66;5084208;28;19931;-77
2021/11/06 11:19:41;;;;;;;;;;;;;;;6.61;86.02;97323.34;5063164;28;19924;-78
2021/11/06 11:22:07;;;;;;;;;;;;;;;6.57;85.92;97315.06;5081116;28;19924;-77
2021/11/06 11:24:33;;;;;;;;;;;;;;;6.54;86.73;97312.00;5080171;28;19925;-77
2021/11/06 11:27:00;;;;;;;;;;;;;;;6.42;87.04;97311.66;5061691;28;19970;-78
2021/11/06 11:29:31;;;;;;;;;;;;;;;6.47;86.87;97311.94;5079966;28;19925;-77
2021/11/06 11:31:57;;;;;;;;;;;;;;;6.31;87.10;97302.47;5078987;28;20011;-78
2021/11/06 11:34:25;;;;;;;;;;;;;;;6.24;87.12;97300.75;5059165;28;19971;-77
2021/11/06 11:36:54;;;;;;;;;;;;;;;6.00;88.70;97305.28;5076318;28;20002;-76
2021/11/06 11:39:21;;;;;;;;;;;;;;;6.26;87.86;97304.03;5078317;28;19931;-77
2021/11/06 11:42:13;;;;;;;;;;;;;;;6.14;88.91;97301.06;5078168;28;20004;-76
2021/11/06 11:44:45;;;;;;;;;;;;;;;6.19;87.99;97297.88;5086582;28;19931;-76
2021/11/06 11:47:14;;;;;;;;;;;;;;;6.21;87.21;97295.91;5095114;28;19924;-74
2021/11/06 11:49:40;;;;;;;;;;;;;;;5.88;88.29;97296.25;5083929;28;20362;-79
2021/11/06 11:52:21;;;;;;;;;;;;;;;5.88;89.74;97296.25;5084319;28;19925;-78
2021/11/06 11:54:51;;;;;;;;;;;;;;;5.71;89.93;97298.22;5081923;28;20005;-77
2021/11/06 11:57:18;;;;;;;;;;;;;;;6.26;88.61;97294.38;5080606;28;19935;-76
2021/11/06 11:59:43;;;;;;;;;;;;;;;6.04;89.25;97290.88;5080120;28;19951;-76
2021/11/06 12:02:19;;;;;;;;;;;;;;;5.98;89.41;97281.16;5080725;28;20349;-77
2021/11/06 12:04:44;;;;;;;;;;;;;;;6.36;87.81;97288.06;5081102;28;19924;-77
2021/11/06 12:07:14;;;;;;;;;;;;;;;6.48;86.65;97291.81;5080847;28;20007;-77
2021/11/06 12:09:40;;;;;;;;;;;;;;;6.31;86.35;97281.56;5083855;28;19924;-77
2021/11/06 12:12:05;;;;;;;;;;;;;;;6.19;87.78;97282.19;5085456;28;19935;-76
2021/11/06 12:14:41;;;;;;;;;;;;;;;6.25;87.39;97282.31;5082355;28;19928;-77
2021/11/06 12:17:08;;;;;;;;;;;;;;;6.28;88.04;97281.13;5081011;28;19931;-77
2021/11/06 12:19:40;;;;;;;;;;;;;;;6.07;87.69;97268.78;5080638;28;19982;-76
2021/11/06 12:22:13;;;;;;;;;;;;;;;6.34;87.19;97269.94;5082282;28;20007;-77
2021/11/06 12:24:40;;;;;;;;;;;;;;;6.36;87.14;97264.56;5081413;28;19924;-76
2021/11/06 12:27:07;;;;;;;;;;;;;;;6.36;87.33;97254.09;5081629;28;19925;-77
2021/11/06 12:29:38;;;;;;;;;;;;;;;6.57;87.17;97246.28;5083409;28;19928;-75
2021/11/06 12:32:13;;;;;;;;;;;;;;;6.55;85.62;97241.22;5068116;28;19932;-77
2021/11/06 12:34:46;;;;;;;;;;;;;;;6.64;85.34;97252.41;5082138;28;19925;-79
2021/11/06 12:37:31;;;;;;;;;;;;;;;6.65;84.16;97250.59;5081405;28;19924;-76
2021/11/06 12:39:57;;;;;;;;;;;;;;;6.66;84.51;97252.19;5085162;28;19935;-76
2021/11/06 12:42:23;;;;;;;;;;;;;;;6.69;84.08;97249.22;5086394;28;19928;-76
2021/11/06 12:44:52;;;;;;;;;;;;;;;6.98;84.38;97245.69;5065517;28;19970;-77
2021/11/06 12:47:20;;;;;;;;;;;;;;;6.61;84.58;97244.09;5082774;28;20273;-76